Time;durP1;ratioP1;P1;durP2;ratioP2;P2;SDS_P1;SDS_P2;PMS_P1;PMS_P2;Temp;Humidity;BMP_temperature;BMP_pressure;BME280_temperature;BME280_humidity;BME280_pressure;Samples;Min_cycle;Max_cycle;Signal;HPM_P1;HPM_P2
2021/05/23 00:00:41;;;;;;;4.60;2.75;;;;;;;11.73;100.00;95928.16;4975278;28;20190;-56
2021/05/23 00:03:10;;;;;;;9.15;2.50;;;;;;;11.55;100.00;95941.53;4967520;28;20058;-54
2021/05/23 00:05:39;;;;;;;2.97;2.50;;;;;;;11.62;100.00;95935.41;4967146;28;20066;-54
2021/05/23 00:08:10;;;;;;;5.35;3.08;;;;;;;11.59;100.00;95943.66;4967845;28;20434;-50
2021/05/23 00:10:39;;;;;;;;;;;;;;;11.59;100.00;95945.47;4968182;28;20069;-53
2021/05/23 00:13:09;;;;;;;7.80;2.88;;;;;;;11.69;100.00;95954.06;4964597;28;19966;-51
2021/05/23 00:15:40;;;;;;;7.30;2.78;;;;;;;11.77;100.00;95951.47;4971619;28;20548;-51
2021/05/23 00:18:10;;;;;;;4.13;2.70;;;;;;;11.52;100.00;95957.69;4951045;28;20082;-52
2021/05/23 00:20:38;;;;;;;4.78;2.70;;;;;;;11.60;100.00;95952.44;4960663;28;21642;-51
2021/05/23 00:23:08;;;;;;;5.35;2.72;;;;;;;11.52;100.00;95953.22;4961191;28;20058;-51
2021/05/23 00:25:37;;;;;;;5.35;3.00;;;;;;;11.51;100.00;95964.78;4967368;28;21287;-52
2021/05/23 00:28:05;;;;;;;4.45;3.03;;;;;;;11.56;100.00;95957.22;4964988;28;20547;-55
2021/05/23 00:30:34;;;;;;;4.95;2.92;;;;;;;11.67;100.00;95953.44;4952032;28;20139;-56
2021/05/23 00:33:03;;;;;;;4.03;2.63;;;;;;;11.56;100.00;95965.13;4964153;28;20062;-50
2021/05/23 00:35:31;;;;;;;5.03;2.70;;;;;;;11.64;100.00;95969.59;4955228;28;20077;-55
2021/05/23 00:37:59;;;;;;;4.63;2.80;;;;;;;11.65;100.00;95973.88;4954037;28;20078;-49
2021/05/23 00:40:28;;;;;;;5.45;2.65;;;;;;;11.70;100.00;95971.59;4966498;28;20051;-55
2021/05/23 00:42:56;;;;;;;5.65;3.10;;;;;;;11.84;100.00;95973.63;4965621;28;20074;-53
2021/05/23 00:45:24;;;;;;;4.18;3.03;;;;;;;11.87;100.00;95973.28;4967878;28;20496;-52
2021/05/23 00:47:52;;;;;;;3.78;2.70;;;;;;;11.74;100.00;95983.47;4964382;28;20067;-54
2021/05/23 00:50:22;;;;;;;6.32;2.67;;;;;;;11.83;100.00;95981.66;4967798;28;20480;-52
2021/05/23 00:52:51;;;;;;;4.85;2.65;;;;;;;11.80;100.00;95985.47;4964848;28;20066;-54
2021/05/23 00:55:19;;;;;;;2.78;2.45;;;;;;;11.83;100.00;95979.00;4964990;28;20063;-50
2021/05/23 00:57:48;;;;;;;5.05;2.85;;;;;;;11.67;100.00;95985.13;4950851;28;20154;-52
2021/05/23 01:01:04;;;;;;;3.78;2.50;;;;;;;11.82;100.00;95986.13;4964196;28;20334;-53
2021/05/23 01:03:59;;;;;;;3.85;2.55;;;;;;;11.80;100.00;95987.25;4964781;28;20579;-50
2021/05/23 01:06:29;;;;;;;5.30;2.20;;;;;;;11.63;100.00;95996.97;4940234;28;21530;-54
2021/05/23 01:08:57;;;;;;;2.83;2.45;;;;;;;11.67;100.00;96000.97;4962778;28;20067;-54
2021/05/23 01:11:57;;;;;;;3.92;2.50;;;;;;;11.69;100.00;95995.50;4964772;28;20073;-54
2021/05/23 01:14:40;;;;;;;;;;;;;;;11.69;100.00;95985.78;4934251;28;20528;-51
2021/05/23 01:17:09;;;;;;;2.67;2.30;;;;;;;11.67;100.00;95986.94;4954893;28;20429;-53
2021/05/23 01:19:45;;;;;;;3.03;2.72;;;;;;;11.77;100.00;95974.41;4951873;28;20066;-50
2021/05/23 01:22:18;;;;;;;6.65;2.65;;;;;;;11.73;100.00;95991.56;4965553;28;20073;-54
2021/05/23 01:24:59;;;;;;;2.90;2.60;;;;;;;11.54;100.00;96003.25;4970827;28;20139;-51
2021/05/23 01:27:34;;;;;;;4.15;2.75;;;;;;;11.81;100.00;96002.16;4965592;28;20066;-54
2021/05/23 01:30:05;;;;;;;3.10;2.35;;;;;;;11.68;100.00;96001.78;4965838;28;20095;-53
2021/05/23 01:32:34;;;;;;;3.58;2.47;;;;;;;11.87;100.00;95996.22;4956707;28;20073;-52
2021/05/23 01:35:08;;;;;;;3.75;2.13;;;;;;;11.79;100.00;96001.47;4946999;28;20073;-49
2021/05/23 01:37:36;;;;;;;4.65;2.25;;;;;;;11.88;100.00;95995.25;4944784;28;20063;-53
2021/05/23 01:40:06;;;;;;;3.20;2.20;;;;;;;11.98;100.00;95997.72;4945363;28;20095;-51
2021/05/23 01:42:35;;;;;;;3.85;2.58;;;;;;;11.88;100.00;95989.97;4947518;28;20083;-51
2021/05/23 01:45:04;;;;;;;4.18;2.53;;;;;;;11.88;100.00;95997.88;4948129;28;20067;-53
2021/05/23 01:47:32;;;;;;;4.20;2.40;;;;;;;11.97;100.00;95986.31;4962910;28;20062;-52
2021/05/23 01:50:00;;;;;;;3.17;2.50;;;;;;;11.99;100.00;95987.00;4958251;28;20078;-51
2021/05/23 01:52:29;;;;;;;3.65;2.38;;;;;;;11.87;100.00;95983.00;4947099;28;20078;-53
2021/05/23 01:54:57;;;;;;;5.60;2.50;;;;;;;11.87;100.00;95983.00;4948422;28;20090;-51
2021/05/23 01:57:26;;;;;;;4.50;2.00;;;;;;;11.97;100.00;95978.38;4968331;28;20082;-55
2021/05/23 01:59:54;;;;;;;4.10;2.50;;;;;;;11.88;100.00;95971.47;4975475;28;20090;-55
2021/05/23 02:02:23;;;;;;;2.60;2.30;;;;;;;11.97;100.00;95972.28;4963822;28;20067;-56
2021/05/23 02:04:51;;;;;;;2.83;2.35;;;;;;;11.91;100.00;95972.97;4972276;28;20069;-52
2021/05/23 02:07:19;;;;;;;2.72;2.13;;;;;;;12.04;100.00;95979.41;4967811;28;20058;-50
2021/05/23 02:09:47;;;;;;;3.53;2.17;;;;;;;11.69;100.00;95987.59;4972150;28;20101;-54
2021/05/23 02:12:15;;;;;;;2.95;2.33;;;;;;;11.53;100.00;95993.69;4966505;28;20451;-49
2021/05/23 02:14:44;;;;;;;2.92;2.17;;;;;;;11.68;100.00;95996.50;4969706;28;20074;-56
2021/05/23 02:17:12;;;;;;;4.47;2.50;;;;;;;11.76;100.00;95993.88;4966989;28;20472;-54
2021/05/23 02:19:40;;;;;;;6.43;2.85;;;;;;;11.79;100.00;95997.00;4971782;28;20063;-56
2021/05/23 02:22:09;;;;;;;9.50;2.95;;;;;;;11.82;100.00;96001.97;4965808;28;20097;-52
2021/05/23 02:24:37;;;;;;;3.67;2.15;;;;;;;11.52;100.00;96013.97;4972251;28;20488;-50
2021/05/23 02:27:05;;;;;;;5.05;2.53;;;;;;;11.47;100.00;96018.91;4966707;28;20098;-55
2021/05/23 02:29:33;;;;;;;3.72;2.40;;;;;;;11.30;100.00;96022.50;4970110;28;20073;-55
2021/05/23 02:32:05;;;;;;;4.25;2.40;;;;;;;11.15;100.00;96020.47;4968042;28;20078;-51
2021/05/23 02:34:33;;;;;;;3.92;2.33;;;;;;;11.12;100.00;96025.22;4963884;28;20063;-52
2021/05/23 02:37:01;;;;;;;3.40;2.72;;;;;;;11.30;100.00;96022.50;4948569;28;20083;-55
2021/05/23 02:39:29;;;;;;;4.47;2.72;;;;;;;11.27;100.00;96025.44;4952184;28;20079;-51
2021/05/23 02:41:57;;;;;;;3.42;2.50;;;;;;;11.22;100.00;96025.06;4948236;28;20079;-53
2021/05/23 02:44:25;;;;;;;3.47;2.42;;;;;;;11.10;100.00;96035.09;4949886;28;20067;-53
2021/05/23 02:46:53;;;;;;;3.92;2.67;;;;;;;11.09;100.00;96042.19;4962496;28;20067;-51
2021/05/23 02:49:22;;;;;;;3.78;2.80;;;;;;;11.09;100.00;96044.00;4966842;28;20070;-53
2021/05/23 02:51:50;;;;;;;3.20;2.63;;;;;;;11.12;100.00;96046.34;4968594;28;20524;-54
2021/05/23 02:54:18;;;;;;;3.60;3.17;;;;;;;11.14;100.00;96042.53;4950493;28;20525;-50
2021/05/23 02:56:46;;;;;;;5.82;3.28;;;;;;;11.12;100.00;96052.44;4952241;28;20093;-54
2021/05/23 02:59:14;;;;;;;4.72;3.10;;;;;;;11.08;100.00;96058.16;4947903;28;20077;-50
2021/05/23 03:01:42;;;;;;;3.33;2.42;;;;;;;10.86;100.00;96063.00;4961866;28;20069;-55
2021/05/23 03:04:10;;;;;;;5.30;2.58;;;;;;;10.83;100.00;96071.22;4970227;28;20101;-55
2021/05/23 03:06:39;;;;;;;3.78;2.15;;;;;;;10.63;100.00;96065.38;4974270;28;20062;-53
2021/05/23 03:09:07;;;;;;;5.03;2.30;;;;;;;10.67;100.00;96098.34;4948546;28;20114;-56
2021/05/23 03:11:35;;;;;;;3.15;1.95;;;;;;;10.78;100.00;96102.53;4965566;28;20101;-50
2021/05/23 03:14:03;;;;;;;3.00;1.92;;;;;;;10.63;100.00;96114.59;4956398;23;20089;-64
2021/05/23 03:16:31;;;;;;;3.58;2.22;;;;;;;10.62;100.00;96110.31;5006401;28;20512;-64
2021/05/23 03:18:59;;;;;;;3.50;2.00;;;;;;;10.15;100.00;96116.66;5000335;28;20086;-64
2021/05/23 03:21:27;;;;;;;3.97;2.10;;;;;;;10.10;100.00;96118.91;5016198;28;20069;-64
2021/05/23 03:23:56;;;;;;;3.72;2.28;;;;;;;9.97;100.00;96118.44;5002296;28;20481;-64
2021/05/23 03:26:25;;;;;;;2.75;1.95;;;;;;;9.85;100.00;96123.09;5016394;28;20053;-64
2021/05/23 03:28:53;;;;;;;3.83;2.15;;;;;;;9.80;100.00;96122.72;5007208;28;20080;-64
2021/05/23 03:31:21;;;;;;;3.17;2.00;;;;;;;9.80;100.00;96127.16;5026564;28;20298;-65
2021/05/23 03:33:49;;;;;;;3.28;2.08;;;;;;;9.73;100.00;96134.81;5026662;28;20074;-64
2021/05/23 03:36:18;;;;;;;6.82;2.30;;;;;;;9.66;100.00;96131.09;5028454;28;20546;-64
2021/05/23 03:38:47;;;;;;;2.25;1.92;;;;;;;9.65;100.00;96146.09;5021047;28;20080;-64
2021/05/23 03:41:17;;;;;;;2.17;1.98;;;;;;;9.70;100.00;96145.63;5025002;28;20041;-64
2021/05/23 03:43:45;;;;;;;2.75;2.10;;;;;;;9.61;100.00;96152.63;5024684;28;20435;-64
2021/05/23 03:46:13;;;;;;;3.92;1.90;;;;;;;9.66;100.00;96154.81;5004540;28;20076;-63
2021/05/23 03:48:41;;;;;;;3.00;1.83;;;;;;;9.58;100.00;96158.16;5029100;28;20080;-64
2021/05/23 03:51:09;;;;;;;2.05;1.77;;;;;;;9.52;100.00;96156.13;5021468;28;20092;-63
2021/05/23 03:53:37;;;;;;;3.22;1.92;;;;;;;9.58;100.00;96165.25;5022744;28;20479;-63
2021/05/23 03:56:06;;;;;;;3.25;2.15;;;;;;;9.47;100.00;96168.91;5004046;28;20050;-64
2021/05/23 03:58:34;;;;;;;3.15;2.00;;;;;;;9.42;100.00;96171.13;5023772;28;20057;-63
2021/05/23 04:01:03;;;;;;;2.17;1.98;;;;;;;9.36;100.00;96172.53;5019718;28;20522;-64
2021/05/23 04:03:32;;;;;;;2.08;1.88;;;;;;;9.38;100.00;96183.75;5025453;28;20069;-63
2021/05/23 04:06:02;;;;;;;3.03;1.73;;;;;;;9.43;100.00;96191.22;5021072;28;20435;-64
2021/05/23 04:08:30;;;;;;;2.22;2.10;;;;;;;9.38;100.00;96191.63;5025025;28;20562;-64
2021/05/23 04:11:01;;;;;;;3.90;2.20;;;;;;;9.30;100.00;96188.06;5020899;28;20523;-63
2021/05/23 04:13:31;;;;;;;3.00;2.00;;;;;;;9.18;100.00;96182.97;5023123;28;20068;-63
2021/05/23 04:16:00;;;;;;;2.22;1.90;;;;;;;9.20;100.00;96190.72;5021354;28;20104;-64
2021/05/23 04:18:28;;;;;;;3.00;2.25;;;;;;;9.07;100.00;96191.03;5026393;28;20072;-65
2021/05/23 04:20:56;;;;;;;3.28;2.55;;;;;;;9.05;100.00;96208.78;5021953;28;20068;-64
2021/05/23 04:23:24;;;;;;;3.13;2.10;;;;;;;9.11;100.00;96207.34;5024079;28;20070;-63
2021/05/23 04:25:52;;;;;;;3.45;2.00;;;;;;;9.04;100.00;96207.09;5024656;28;20077;-64
2021/05/23 04:28:20;;;;;;;4.13;2.28;;;;;;;8.99;100.00;96215.41;5022559;28;20613;-63
2021/05/23 04:30:49;;;;;;;2.80;1.95;;;;;;;9.08;100.00;96216.34;5028065;28;20082;-64
2021/05/23 04:33:18;;;;;;;2.58;2.10;;;;;;;9.01;100.00;96210.81;5017747;28;20358;-64
2021/05/23 04:35:46;;;;;;;2.35;2.08;;;;;;;8.94;100.00;96222.06;5023378;28;20084;-63
2021/05/23 04:38:14;;;;;;;3.05;2.08;;;;;;;9.00;100.00;96232.00;5020741;28;20565;-64
2021/05/23 04:40:46;;;;;;;2.10;1.70;;;;;;;8.98;100.00;96234.81;5022731;28;20069;-64
2021/05/23 04:43:15;;;;;;;2.40;2.15;;;;;;;9.00;100.00;96240.72;5022377;28;20550;-64
2021/05/23 04:45:43;;;;;;;2.30;1.80;;;;;;;8.99;100.00;96239.09;5024859;28;20081;-64
2021/05/23 04:48:11;;;;;;;2.50;1.80;;;;;;;8.96;100.00;96242.00;5020332;28;20065;-64
2021/05/23 04:50:40;;;;;;;3.72;1.90;;;;;;;8.86;100.00;96249.06;5023950;28;20058;-64
2021/05/23 04:53:08;;;;;;;1.92;1.58;;;;;;;9.00;100.00;96247.78;5019781;28;20546;-64
2021/05/23 04:55:36;;;;;;;2.58;1.70;;;;;;;8.94;100.00;96259.69;5020897;28;20474;-64
2021/05/23 04:58:05;;;;;;;1.70;1.60;;;;;;;8.94;100.00;96264.13;5021427;28;20080;-64
2021/05/23 05:00:33;;;;;;;1.77;1.67;;;;;;;8.91;100.00;96251.25;5023907;28;20084;-64
2021/05/23 05:03:01;;;;;;;1.85;1.75;;;;;;;8.92;100.00;96269.53;5017383;28;20084;-65
2021/05/23 05:05:48;;;;;;;1.98;1.80;;;;;;;9.08;100.00;96270.75;5020484;28;20058;-64
2021/05/23 05:08:18;;;;;;;1.90;1.80;;;;;;;8.99;100.00;96270.66;5020137;28;20068;-64
2021/05/23 05:10:46;;;;;;;2.03;1.85;;;;;;;9.06;100.00;96278.81;5022831;28;20081;-64
2021/05/23 05:13:14;;;;;;;2.47;1.60;;;;;;;9.02;100.00;96275.63;5022775;28;20076;-64
2021/05/23 05:15:42;;;;;;;1.50;1.40;;;;;;;9.15;100.00;96269.22;5023464;28;20076;-64
2021/05/23 05:18:10;;;;;;;3.15;1.83;;;;;;;9.06;100.00;96280.63;5021985;28;20471;-64
2021/05/23 05:20:39;;;;;;;1.80;1.70;;;;;;;9.04;100.00;96291.25;5018534;28;20072;-64
2021/05/23 05:23:08;;;;;;;2.05;1.50;;;;;;;9.06;100.00;96281.44;5021035;28;20069;-64
2021/05/23 05:25:36;;;;;;;1.77;1.67;;;;;;;8.93;100.00;96284.34;5023417;28;20099;-64
2021/05/23 05:28:21;;;;;;;1.95;1.55;;;;;;;9.04;100.00;96289.44;5019250;28;20092;-62
2021/05/23 05:30:49;;;;;;;2.60;1.73;;;;;;;9.15;100.00;96292.91;5021636;28;20479;-60
2021/05/23 05:33:17;;;;;;;2.45;1.67;;;;;;;9.35;100.00;96296.34;5021369;28;20229;-64
2021/05/23 05:35:45;;;;;;;1.70;1.60;;;;;;;9.24;100.00;96305.22;5019963;28;20487;-64
2021/05/23 05:38:15;;;;;;;1.60;1.50;;;;;;;9.21;100.00;96310.78;5022927;28;20069;-63
2021/05/23 05:40:43;;;;;;;1.55;1.45;;;;;;;9.29;100.00;96318.81;5020211;28;20069;-64
2021/05/23 05:43:11;;;;;;;1.80;1.70;;;;;;;9.16;100.00;96324.34;5021567;28;20072;-63
2021/05/23 05:45:39;;;;;;;2.22;1.70;;;;;;;9.21;100.00;96330.00;5019017;28;20084;-64
2021/05/23 05:48:08;;;;;;;1.60;1.50;;;;;;;9.22;100.00;96326.44;5018049;28;20076;-64
2021/05/23 05:50:36;;;;;;;1.60;1.38;;;;;;;9.23;100.00;96329.88;5015235;28;20088;-64
2021/05/23 05:53:04;;;;;;;1.55;1.40;;;;;;;9.42;100.00;96326.41;5021763;28;20057;-63
2021/05/23 05:55:32;;;;;;;2.47;1.70;;;;;;;9.49;100.00;96338.03;5018950;28;20501;-64
2021/05/23 05:58:00;;;;;;;1.60;1.50;;;;;;;9.21;100.00;96337.06;5020743;28;20072;-63
2021/05/23 06:00:28;;;;;;;1.70;1.60;;;;;;;9.18;100.00;96342.63;5022423;28;20499;-64
2021/05/23 06:03:14;;;;;;;1.70;1.60;;;;;;;9.17;100.00;96352.31;5023977;28;20496;-64
2021/05/23 06:05:42;;;;;;;1.80;1.70;;;;;;;9.28;100.00;96360.06;5014167;28;20076;-63
2021/05/23 06:08:28;;;;;;;1.70;1.60;;;;;;;9.39;100.00;96360.88;5023372;28;20069;-63
2021/05/23 06:10:57;;;;;;;1.77;1.67;;;;;;;9.31;100.00;96363.41;5020681;28;20191;-64
2021/05/23 06:13:25;;;;;;;1.67;1.27;;;;;;;9.04;100.00;96363.09;5021807;28;20069;-63
2021/05/23 06:15:54;;;;;;;1.67;1.58;;;;;;;9.23;100.00;96370.19;5017926;28;20099;-63
2021/05/23 06:18:25;;;;;;;1.30;1.20;;;;;;;9.23;100.00;96372.81;5022132;28;20531;-63
2021/05/23 06:20:54;;;;;;;1.70;1.60;;;;;;;9.24;100.00;96369.19;5019400;28;20069;-63
2021/05/23 06:23:22;;;;;;;1.50;1.40;;;;;;;9.14;100.00;96372.81;5019921;28;20070;-63
2021/05/23 06:25:50;;;;;;;2.38;1.60;;;;;;;8.97;100.00;96364.63;5017478;28;20085;-63
2021/05/23 06:28:19;;;;;;;1.40;1.40;;;;;;;8.83;100.00;96388.69;5019506;28;20077;-63
2021/05/23 06:30:47;;;;;;;1.80;1.70;;;;;;;9.11;100.00;96389.69;5019056;28;20095;-62
2021/05/23 06:33:14;;;;;;;1.42;1.40;;;;;;;9.10;100.00;96390.66;5019565;28;20076;-63
2021/05/23 06:35:43;;;;;;;1.60;1.50;;;;;;;9.31;100.00;96390.53;5024063;28;20061;-63
2021/05/23 06:38:11;;;;;;;3.33;1.30;;;;;;;9.46;100.00;96397.06;5017262;28;20077;-64
2021/05/23 06:40:39;;;;;;;1.50;1.40;;;;;;;9.28;100.00;96403.97;5022031;28;20057;-63
2021/05/23 06:43:07;;;;;;;1.48;1.38;;;;;;;9.18;100.00;96416.28;5017936;28;20112;-62
2021/05/23 06:45:36;;;;;;;1.60;1.50;;;;;;;9.01;100.00;96418.59;5027793;28;20077;-64
2021/05/23 06:48:22;;;;;;;1.60;1.50;;;;;;;9.03;100.00;96421.13;5025091;28;20084;-64
2021/05/23 06:50:51;;;;;;;1.40;1.30;;;;;;;9.09;100.00;96432.91;5024460;28;20082;-64
2021/05/23 06:53:19;;;;;;;1.52;1.40;;;;;;;9.06;100.00;96431.38;5019681;28;20080;-64
2021/05/23 06:55:47;;;;;;;1.55;1.45;;;;;;;9.01;100.00;96430.94;5023573;28;20069;-64
2021/05/23 06:58:15;;;;;;;1.88;1.77;;;;;;;8.97;100.00;96424.28;5021592;28;20077;-64
2021/05/23 07:00:44;;;;;;;1.50;1.40;;;;;;;9.00;100.00;96418.75;5028676;28;20072;-64
2021/05/23 07:03:29;;;;;;;1.40;1.30;;;;;;;9.01;100.00;96431.75;5021895;28;20061;-64
2021/05/23 07:05:58;;;;;;;1.50;1.40;;;;;;;9.14;100.00;96420.16;5024729;28;20487;-64
2021/05/23 07:08:25;;;;;;;1.65;1.55;;;;;;;9.13;100.00;96423.75;5023407;28;20092;-63
2021/05/23 07:10:53;;;;;;;4.95;3.78;;;;;;;9.04;100.00;96435.91;5023004;28;20503;-64
2021/05/23 07:13:23;;;;;;;2.45;1.38;;;;;;;9.37;100.00;96439.16;5021535;28;20407;-65
2021/05/23 07:15:53;;;;;;;1.73;1.63;;;;;;;9.18;100.00;96429.44;5024802;28;20535;-64
2021/05/23 07:18:21;;;;;;;2.35;2.10;;;;;;;9.19;100.00;96445.09;5026963;28;20178;-65
2021/05/23 07:20:49;;;;;;;1.75;1.65;;;;;;;9.19;100.00;96447.72;5017980;28;20080;-65
2021/05/23 07:23:17;;;;;;;1.50;1.40;;;;;;;9.39;100.00;96450.38;5019220;28;20072;-65
2021/05/23 07:25:45;;;;;;;2.50;2.17;;;;;;;9.35;100.00;96459.50;5022730;28;21085;-64
2021/05/23 07:28:13;;;;;;;1.70;1.60;;;;;;;9.34;100.00;96461.31;5019445;28;20066;-63
2021/05/23 07:30:41;;;;;;;1.50;1.40;;;;;;;9.38;100.00;96473.22;5024139;28;20477;-65
2021/05/23 07:33:10;;;;;;;1.70;1.60;;;;;;;9.51;100.00;96475.59;5021872;28;20065;-64
2021/05/23 07:35:38;;;;;;;1.60;1.50;;;;;;;9.36;100.00;96484.84;5019727;28;20088;-64
2021/05/23 07:38:07;;;;;;;1.98;1.70;;;;;;;9.47;100.00;96484.75;5023817;28;20073;-64
2021/05/23 07:40:35;;;;;;;1.30;1.30;;;;;;;9.44;100.00;96482.38;5023822;28;20045;-65
2021/05/23 07:43:03;;;;;;;1.67;1.58;;;;;;;9.46;100.00;96485.69;5022735;28;20082;-64
2021/05/23 07:45:31;;;;;;;3.47;1.40;;;;;;;9.46;100.00;96478.66;5023861;28;20073;-64
2021/05/23 07:47:59;;;;;;;1.40;1.30;;;;;;;9.49;100.00;96483.63;5023495;28;20516;-64
2021/05/23 07:50:28;;;;;;;1.50;1.40;;;;;;;9.60;100.00;96480.06;5021044;28;20489;-65
2021/05/23 07:52:56;;;;;;;1.48;1.35;;;;;;;9.62;100.00;96482.53;5021516;28;20092;-63
2021/05/23 07:55:24;;;;;;;1.67;1.58;;;;;;;9.82;100.00;96475.47;5013731;28;20081;-64
2021/05/23 07:57:52;;;;;;;1.63;1.52;;;;;;;9.87;100.00;96470.59;5020554;28;20093;-64
2021/05/23 08:00:20;;;;;;;1.50;1.40;;;;;;;10.07;100.00;96476.69;5022032;28;20476;-64
2021/05/23 08:02:48;;;;;;;1.40;1.35;;;;;;;10.38;100.00;96472.91;5020019;28;20100;-64
2021/05/23 08:05:17;;;;;;;1.90;1.48;;;;;;;10.28;100.00;96471.25;5017666;28;20068;-65
2021/05/23 08:07:46;;;;;;;1.40;1.30;;;;;;;10.63;100.00;96483.78;5021567;28;20112;-62
2021/05/23 08:10:14;;;;;;;1.38;1.27;;;;;;;10.85;100.00;96477.31;5020527;28;20053;-65
2021/05/23 08:12:42;;;;;;;1.58;1.20;;;;;;;11.02;100.00;96484.47;5022218;28;20471;-63
2021/05/23 08:15:12;;;;;;;2.25;1.40;;;;;;;11.19;100.00;96496.03;5022323;28;20065;-62
2021/05/23 08:17:41;;;;;;;1.77;1.30;;;;;;;11.86;100.00;96489.47;5024976;28;20065;-63
2021/05/23 08:20:10;;;;;;;1.10;1.10;;;;;;;11.80;100.00;96479.50;5020215;28;21133;-62
2021/05/23 08:22:38;;;;;;;1.40;1.30;;;;;;;12.09;100.00;96479.28;5022599;28;20072;-63
2021/05/23 08:25:08;;;;;;;1.35;1.25;;;;;;;11.60;100.00;96481.47;5021660;28;20081;-63
2021/05/23 08:27:36;;;;;;;3.42;1.90;;;;;;;12.09;100.00;96484.56;5024199;28;20100;-62
2021/05/23 08:30:05;;;;;;;2.83;1.80;;;;;;;11.90;100.00;96483.91;5024553;28;20559;-62
2021/05/23 08:32:35;;;;;;;2.65;2.08;;;;;;;11.92;100.00;96481.94;5019631;28;20077;-63
2021/05/23 08:35:05;;;;;;;2.72;1.40;;;;;;;12.42;100.00;96474.22;5025156;28;20459;-62
2021/05/23 08:37:32;;;;;;;1.30;1.20;;;;;;;12.43;100.00;96489.09;5020059;28;20077;-63
2021/05/23 08:40:00;;;;;;;1.33;1.23;;;;;;;12.59;100.00;96505.09;5023417;28;20598;-62
2021/05/23 08:42:30;;;;;;;1.30;1.20;;;;;;;12.48;100.00;96509.78;5023726;28;20085;-62
2021/05/23 08:44:59;;;;;;;;;;;;;;;12.79;100.00;96507.50;5021127;28;20072;-63
2021/05/23 08:47:27;;;;;;;1.30;1.17;;;;;;;12.76;100.00;96513.91;5017569;28;20402;-63
2021/05/23 08:49:55;;;;;;;1.20;1.10;;;;;;;12.31;100.00;96508.84;5016958;28;20073;-62
2021/05/23 08:52:23;;;;;;;1.00;1.00;;;;;;;12.20;100.00;96511.72;5018617;28;20080;-63
2021/05/23 08:54:51;;;;;;;2.25;1.30;;;;;;;12.66;100.00;96515.84;5019663;28;20096;-62
2021/05/23 08:57:22;;;;;;;1.13;1.10;;;;;;;12.72;100.00;96515.22;5018700;28;20461;-63
2021/05/23 08:59:51;;;;;;;2.38;1.40;;;;;;;13.05;100.00;96505.66;5020032;28;20061;-63
2021/05/23 09:02:19;;;;;;;1.95;1.40;;;;;;;12.97;100.00;96507.41;5022099;28;20077;-62
2021/05/23 09:04:49;;;;;;;1.48;1.30;;;;;;;12.63;100.00;96517.97;5023409;28;20149;-62
2021/05/23 09:07:18;;;;;;;1.10;1.10;;;;;;;12.05;100.00;96519.38;5014014;28;20069;-62
2021/05/23 09:09:47;;;;;;;2.85;1.20;;;;;;;11.88;100.00;96513.94;5027224;28;20073;-62
2021/05/23 09:12:17;;;;;;;1.35;1.25;;;;;;;11.63;100.00;96517.28;5020474;28;20467;-62
2021/05/23 09:14:47;;;;;;;1.70;1.40;;;;;;;11.96;100.00;96513.19;5018953;28;20069;-62
2021/05/23 09:17:24;;;;;;;1.58;1.30;;;;;;;12.01;100.00;96520.66;5023462;28;20068;-63
2021/05/23 09:19:53;;;;;;;1.40;1.30;;;;;;;12.22;100.00;96525.66;5021439;28;20064;-63
2021/05/23 09:22:24;;;;;;;1.40;1.30;;;;;;;12.14;100.00;96536.97;5010695;28;20065;-63
2021/05/23 09:24:55;;;;;;;1.60;1.20;;;;;;;12.18;100.00;96534.84;5019471;28;20085;-62
2021/05/23 09:27:26;;;;;;;2.20;1.20;;;;;;;12.46;100.00;96536.41;5020094;28;20076;-63
2021/05/23 09:30:02;;;;;;;0.90;0.90;;;;;;;11.91;100.00;96539.25;5021032;28;20545;-63
2021/05/23 09:32:36;;;;;;;2.13;1.35;;;;;;;12.72;100.00;96543.50;5016113;28;20061;-62
2021/05/23 09:35:06;;;;;;;1.20;1.10;;;;;;;12.50;100.00;96545.69;5020799;28;20072;-63
2021/05/23 09:37:34;;;;;;;1.88;1.42;;;;;;;12.79;100.00;96541.91;5007618;28;20097;-63
2021/05/23 09:40:03;;;;;;;4.38;1.20;;;;;;;12.08;100.00;96542.88;5016527;28;20111;-63
2021/05/23 09:42:44;;;;;;;1.80;1.20;;;;;;;12.93;100.00;96551.91;5021432;28;20072;-62
2021/05/23 09:45:14;;;;;;;1.33;1.10;;;;;;;12.85;100.00;96548.38;5015211;28;20034;-62
2021/05/23 09:47:54;;;;;;;1.92;1.00;;;;;;;12.57;100.00;96537.97;5021860;28;20049;-63
2021/05/23 09:50:37;;;;;;;3.70;1.20;;;;;;;12.39;100.00;96547.72;5019248;28;20421;-63
2021/05/23 09:53:17;;;;;;;2.85;1.30;;;;;;;13.12;100.00;96555.31;5013993;28;20057;-61
2021/05/23 09:55:59;;;;;;;1.63;1.10;;;;;;;12.96;100.00;96562.19;5019151;28;20072;-62
2021/05/23 09:58:30;;;;;;;2.13;1.30;;;;;;;13.48;100.00;96548.88;5016916;28;20053;-62
2021/05/23 10:00:58;;;;;;;;;;;;;;;13.64;100.00;96556.06;5004314;28;20069;-64
2021/05/23 10:03:28;;;;;;;1.65;1.10;;;;;;;13.39;100.00;96559.63;5022688;28;19941;-62
2021/05/23 10:05:57;;;;;;;2.33;1.30;;;;;;;12.75;100.00;96561.72;5017259;28;20070;-63
2021/05/23 10:08:25;;;;;;;1.52;1.35;;;;;;;12.83;100.00;96569.69;5020574;28;20504;-62
2021/05/23 10:10:54;;;;;;;1.70;1.02;;;;;;;12.77;100.00;96573.00;5002699;28;20069;-62
2021/05/23 10:13:24;;;;;;;1.00;1.00;;;;;;;12.83;100.00;96572.34;5005046;28;20085;-62
2021/05/23 10:15:52;;;;;;;1.25;0.90;;;;;;;13.03;100.00;96567.66;5011868;28;20079;-62
2021/05/23 10:18:22;;;;;;;1.40;1.30;;;;;;;13.09;100.00;96577.66;5026422;28;20481;-62
2021/05/23 10:20:54;;;;;;;1.40;1.30;;;;;;;12.77;100.00;96584.41;5024121;28;20069;-63
2021/05/23 10:23:26;;;;;;;1.88;1.02;;;;;;;11.81;100.00;96600.06;5011048;28;20057;-62
2021/05/23 10:25:58;;;;;;;1.60;1.23;;;;;;;11.68;100.00;96601.41;5022713;28;20080;-63
2021/05/23 10:28:27;;;;;;;1.55;1.20;;;;;;;12.12;100.00;96589.16;5008094;28;20063;-62
2021/05/23 10:31:12;;;;;;;1.30;1.20;;;;;;;11.37;100.00;96585.84;5017880;28;20061;-62
2021/05/23 10:33:49;;;;;;;1.58;1.30;;;;;;;11.76;100.00;96577.69;5028025;28;20084;-62
2021/05/23 10:36:28;;;;;;;1.73;1.23;;;;;;;12.01;100.00;96570.88;5020776;28;20105;-63
2021/05/23 10:38:57;;;;;;;1.10;1.10;;;;;;;12.36;100.00;96559.47;5025996;28;20064;-61
2021/05/23 10:41:25;;;;;;;1.10;1.00;;;;;;;12.86;100.00;96566.75;5023930;28;20062;-63
2021/05/23 10:43:57;;;;;;;0.90;0.90;;;;;;;12.69;100.00;96575.56;5024319;28;20458;-62
2021/05/23 10:46:26;;;;;;;1.48;1.23;;;;;;;12.82;100.00;96566.22;5018163;28;20061;-63
2021/05/23 10:48:55;;;;;;;1.10;1.10;;;;;;;13.42;100.00;96568.06;5020932;28;20100;-63
2021/05/23 10:51:24;;;;;;;0.90;0.90;;;;;;;13.65;100.00;96572.78;5020692;28;20065;-61
2021/05/23 10:53:53;;;;;;;1.20;1.10;;;;;;;13.48;100.00;96567.41;5021282;28;20538;-63
2021/05/23 10:56:24;;;;;;;1.17;1.05;;;;;;;13.23;100.00;96573.56;5023358;28;20106;-62
2021/05/23 10:58:54;;;;;;;1.63;1.33;;;;;;;13.09;100.00;96567.06;5019100;28;20080;-61
2021/05/23 11:01:43;;;;;;;1.40;1.30;;;;;;;13.01;100.00;96559.91;5007050;28;20069;-64
2021/05/23 11:04:13;;;;;;;1.85;1.20;;;;;;;13.21;100.00;96562.31;5025256;28;20467;-62
2021/05/23 11:06:44;;;;;;;1.50;1.38;;;;;;;13.49;100.00;96560.31;5021018;28;20073;-63
2021/05/23 11:09:15;;;;;;;1.48;1.38;;;;;;;13.61;100.00;96548.41;5025322;28;20073;-63
2021/05/23 11:11:44;;;;;;;1.83;1.67;;;;;;;13.80;100.00;96542.03;5008955;28;20061;-63
2021/05/23 11:14:17;;;;;;;2.90;1.10;;;;;;;13.44;100.00;96544.06;5022430;28;20073;-65
2021/05/23 11:16:52;;;;;;;3.97;1.30;;;;;;;14.18;100.00;96542.41;5024720;28;20070;-62
2021/05/23 11:19:21;;;;;;;1.30;1.20;;;;;;;14.02;100.00;96543.22;5008761;28;20033;-63
2021/05/23 11:21:51;;;;;;;1.73;1.30;;;;;;;14.07;100.00;96545.34;5025623;28;20148;-62
2021/05/23 11:24:26;;;;;;;1.85;1.50;;;;;;;14.48;100.00;96539.06;5023964;28;20104;-62
2021/05/23 11:27:10;;;;;;;1.35;1.25;;;;;;;14.63;100.00;96547.22;5024260;28;20072;-64
2021/05/23 11:29:38;;;;;;;1.97;1.30;;;;;;;14.30;100.00;96537.59;5024318;28;20782;-62
2021/05/23 11:32:12;;;;;;;1.38;1.27;;;;;;;14.18;100.00;96545.06;5020014;28;20495;-63
2021/05/23 11:34:40;;;;;;;1.30;1.20;;;;;;;14.42;100.00;96537.09;5021750;28;20069;-62
2021/05/23 11:37:08;;;;;;;1.85;1.55;;;;;;;14.37;100.00;96525.31;5025255;28;20092;-62
2021/05/23 11:39:37;;;;;;;2.28;1.40;;;;;;;15.23;100.00;96531.81;5022124;28;20077;-63
2021/05/23 11:42:06;;;;;;;2.30;1.00;;;;;;;14.85;100.00;96528.94;5023453;28;20100;-64